Time;durP1;ratioP1;P1;durP2;ratioP2;P2;SDS_P1;SDS_P2;PMS_P1;PMS_P2;Temp;Humidity;BMP_temperature;BMP_pressure;BME280_temperature;BME280_humidity;BME280_pressure;Samples;Min_cycle;Max_cycle;Signal;HPM_P1;HPM_P2
2023/11/05 00:00:41;;;;;;;1.70;0.97;;;8.40;99.90;;;;;;5095237;27;20196;-44
2023/11/05 00:03:10;;;;;;;1.67;1.00;;;8.40;99.90;;;;;;5100789;28;20201;-44
2023/11/05 00:05:37;;;;;;;1.47;0.80;;;8.40;99.90;;;;;;5100275;28;20296;-45
2023/11/05 00:08:04;;;;;;;1.30;1.20;;;8.40;99.90;;;;;;5105909;27;20185;-45
2023/11/05 00:10:31;;;;;;;1.27;1.17;;;8.40;99.90;;;;;;5060861;28;20221;-44
2023/11/05 00:12:58;;;;;;;1.90;1.13;;;8.40;99.90;;;;;;5105201;28;20550;-45
2023/11/05 00:15:26;;;;;;;1.10;1.00;;;8.40;99.90;;;;;;5090037;28;20216;-45
2023/11/05 00:17:52;;;;;;;0.90;0.90;;;8.40;99.90;;;;;;5103699;28;20279;-44
2023/11/05 00:20:21;;;;;;;1.30;0.77;;;8.40;99.90;;;;;;5102758;28;20185;-43
2023/11/05 00:22:48;;;;;;;0.90;0.90;;;8.40;99.90;;;;;;5103977;27;20350;-44
2023/11/05 00:25:15;;;;;;;0.90;0.90;;;8.40;99.90;;;;;;5084408;28;20233;-44
2023/11/05 00:27:42;;;;;;;1.23;1.00;;;8.40;99.90;;;;;;5072077;28;20871;-44
2023/11/05 00:30:09;;;;;;;0.80;0.80;;;8.40;99.90;;;;;;5097056;28;20205;-44
2023/11/05 00:32:36;;;;;;;1.40;1.10;;;8.40;99.90;;;;;;5099219;27;20189;-45
2023/11/05 00:35:03;;;;;;;0.97;0.90;;;8.30;99.90;;;;;;5102175;27;20201;-45
2023/11/05 00:37:31;;;;;;;1.10;1.00;;;8.30;99.90;;;;;;5099180;28;20451;-46
2023/11/05 00:39:58;;;;;;;0.87;0.87;;;8.30;99.90;;;;;;5097803;27;20262;-44
2023/11/05 00:42:25;;;;;;;0.80;0.80;;;8.40;99.90;;;;;;5067521;27;20208;-43
2023/11/05 00:44:52;;;;;;;2.10;1.10;;;8.30;99.90;;;;;;5103182;28;20240;-44
2023/11/05 00:47:19;;;;;;;1.70;1.10;;;8.30;99.90;;;;;;5089076;28;20204;-42
2023/11/05 00:49:45;;;;;;;2.17;1.13;;;8.30;99.90;;;;;;5101835;28;20628;-46
2023/11/05 00:52:12;;;;;;;1.63;1.20;;;8.30;99.90;;;;;;5099722;27;20652;-42
2023/11/05 00:54:40;;;;;;;1.10;0.97;;;8.30;99.90;;;;;;5096295;28;20396;-47
2023/11/05 00:57:07;;;;;;;1.30;1.20;;;8.30;99.90;;;;;;5091113;28;20193;-43
2023/11/05 00:59:35;;;;;;;1.50;1.10;;;8.30;99.90;;;;;;5084505;28;20979;-44
2023/11/05 01:02:02;;;;;;;0.93;0.90;;;8.30;99.90;;;;;;5102638;28;20192;-42
2023/11/05 01:04:29;;;;;;;3.00;1.10;;;8.30;99.90;;;;;;5090082;27;20232;-44
2023/11/05 01:06:56;;;;;;;1.47;0.97;;;8.30;99.90;;;;;;5103140;28;20205;-45
2023/11/05 01:09:23;;;;;;;1.33;0.97;;;8.20;99.90;;;;;;5099765;28;20310;-43
2023/11/05 01:11:51;;;;;;;0.87;0.87;;;8.20;99.90;;;;;;5097068;28;20217;-42
2023/11/05 01:14:18;;;;;;;1.83;1.27;;;8.20;99.90;;;;;;5068440;28;20217;-47
2023/11/05 01:16:45;;;;;;;1.93;1.10;;;8.20;99.90;;;;;;5102940;27;20201;-45
2023/11/05 01:19:12;;;;;;;2.07;1.33;;;8.20;99.90;;;;;;5085224;28;20201;-45
2023/11/05 01:21:40;;;;;;;1.60;1.00;;;8.20;99.90;;;;;;5102260;28;20189;-45
2023/11/05 01:24:09;;;;;;;1.13;1.03;;;8.20;99.90;;;;;;5101322;28;20217;-42
2023/11/05 01:26:36;;;;;;;2.07;1.20;;;8.20;99.90;;;;;;5092692;28;20201;-43
2023/11/05 01:29:04;;;;;;;1.63;1.10;;;8.20;99.90;;;;;;5069527;28;20242;-48
2023/11/05 01:31:30;;;;;;;1.37;1.10;;;8.20;99.90;;;;;;5099397;28;20301;-42
2023/11/05 01:33:57;;;;;;;2.77;1.07;;;8.10;99.90;;;;;;5093881;27;20640;-44
2023/11/05 01:36:24;;;;;;;2.17;1.20;;;8.10;99.90;;;;;;5099915;28;20196;-45
2023/11/05 01:38:51;;;;;;;3.03;1.37;;;8.10;99.90;;;;;;5099522;28;20201;-44
2023/11/05 01:41:18;;;;;;;2.67;1.00;;;8.20;99.90;;;;;;5100217;28;20596;-44
2023/11/05 01:43:44;;;;;;;3.13;1.07;;;8.20;99.90;;;;;;5060810;28;20247;-45
2023/11/05 01:46:13;;;;;;;1.20;0.90;;;8.20;99.90;;;;;;5100402;28;20190;-46
2023/11/05 01:48:39;;;;;;;1.30;1.20;;;8.20;99.90;;;;;;5101554;28;20534;-43
2023/11/05 01:51:13;;;;;;;1.03;1.03;;;8.20;99.90;;;;;;5092466;28;20298;-44
2023/11/05 01:53:40;;;;;;;0.97;0.97;;;8.20;99.90;;;;;;5102068;27;20281;-44
2023/11/05 01:56:08;;;;;;;1.93;1.20;;;8.20;99.90;;;;;;5099326;28;20664;-44
2023/11/05 01:58:35;;;;;;;1.43;1.20;;;8.20;99.90;;;;;;5099812;28;20189;-42
2023/11/05 02:01:02;;;;;;;0.90;0.90;;;8.20;99.90;;;;;;5070731;28;20253;-42
2023/11/05 02:03:30;;;;;;;1.20;1.10;;;8.20;99.90;;;;;;5096319;28;20979;-49
2023/11/05 02:05:57;;;;;;;1.30;1.20;;;8.20;99.90;;;;;;5086219;27;20228;-47
2023/11/05 02:08:25;;;;;;;1.77;1.00;;;8.20;99.90;;;;;;5097917;28;20190;-42
2023/11/05 02:10:52;;;;;;;1.83;1.20;;;8.20;99.90;;;;;;5101155;28;20291;-44
2023/11/05 02:13:19;;;;;;;1.90;1.00;;;8.30;99.90;;;;;;5098487;28;20543;-43
2023/11/05 02:15:46;;;;;;;1.03;1.00;;;8.30;99.90;;;;;;5069821;28;20702;-43
2023/11/05 02:18:13;;;;;;;2.27;1.00;;;8.30;99.90;;;;;;5097328;28;20197;-43
2023/11/05 02:20:41;;;;;;;2.07;1.00;;;8.30;99.90;;;;;;5094129;28;20925;-44
2023/11/05 02:23:15;;;;;;;1.17;1.07;;;8.40;99.90;;;;;;5088408;28;20193;-42
2023/11/05 02:25:42;;;;;;;1.00;1.00;;;8.40;99.90;;;;;;5097534;28;20751;-43
2023/11/05 02:28:10;;;;;;;1.33;1.00;;;8.40;99.90;;;;;;5098755;28;20266;-44
2023/11/05 02:30:37;;;;;;;1.13;1.07;;;8.40;99.90;;;;;;5067612;28;20242;-45
2023/11/05 02:33:04;;;;;;;2.10;1.17;;;8.40;99.90;;;;;;5099782;28;20831;-44
2023/11/05 02:35:30;;;;;;;1.90;1.10;;;8.40;99.90;;;;;;5097066;28;20522;-45
2023/11/05 02:37:57;;;;;;;1.23;1.10;;;8.40;99.90;;;;;;5090063;28;20239;-44
2023/11/05 02:40:25;;;;;;;1.80;0.83;;;8.40;99.90;;;;;;5096725;28;20261;-45
2023/11/05 02:42:52;;;;;;;1.77;1.17;;;8.40;99.90;;;;;;5101525;28;20197;-45
2023/11/05 02:45:20;;;;;;;1.60;1.10;;;8.40;99.90;;;;;;5068704;28;20746;-42
2023/11/05 02:47:47;;;;;;;2.57;1.20;;;8.40;99.90;;;;;;5101012;28;20201;-48
2023/11/05 02:50:15;;;;;;;1.37;1.07;;;8.40;99.90;;;;;;5098360;28;20201;-42
2023/11/05 02:52:42;;;;;;;2.20;1.40;;;8.40;99.90;;;;;;5090233;28;20302;-44
2023/11/05 02:55:10;;;;;;;1.97;1.17;;;8.40;99.90;;;;;;5099217;28;20220;-42
2023/11/05 02:57:38;;;;;;;1.20;1.10;;;8.40;99.90;;;;;;5098700;28;20201;-46
2023/11/05 03:00:07;;;;;;;3.20;1.07;;;8.40;99.90;;;;;;5093532;28;20238;-44
2023/11/05 03:02:35;;;;;;;1.40;1.10;;;8.40;99.90;;;;;;5081385;28;20927;-43
2023/11/05 03:05:03;;;;;;;2.47;1.03;;;8.40;99.90;;;;;;5101739;28;20240;-45
2023/11/05 03:07:30;;;;;;;2.30;1.37;;;8.40;99.90;;;;;;5099180;28;20278;-46
2023/11/05 03:09:57;;;;;;;1.73;0.97;;;8.40;99.90;;;;;;5090092;28;20594;-45
2023/11/05 03:12:26;;;;;;;1.80;1.27;;;8.40;99.90;;;;;;5097054;28;20236;-45
2023/11/05 03:14:54;;;;;;;0.80;0.80;;;8.40;99.90;;;;;;5099963;28;20221;-43
2023/11/05 03:17:21;;;;;;;2.63;1.23;;;8.40;99.90;;;;;;5062605;28;20209;-47
2023/11/05 03:19:48;;;;;;;1.47;1.10;;;8.40;99.90;;;;;;5099865;28;20203;-44
2023/11/05 03:22:15;;;;;;;2.37;1.23;;;8.40;99.90;;;;;;5099571;28;20582;-43
2023/11/05 03:24:41;;;;;;;1.77;0.97;;;8.30;99.90;;;;;;5091668;28;20240;-43
2023/11/05 03:27:08;;;;;;;2.23;1.10;;;8.30;99.90;;;;;;5099604;28;20284;-43
2023/11/05 03:29:35;;;;;;;1.63;0.90;;;8.40;99.90;;;;;;5099193;28;20266;-47
2023/11/05 03:32:04;;;;;;;1.20;1.10;;;8.30;99.90;;;;;;5099319;28;20555;-44
2023/11/05 03:34:31;;;;;;;2.83;1.10;;;8.30;99.90;;;;;;5074007;28;20217;-47
2023/11/05 03:36:58;;;;;;;1.40;1.30;;;8.30;99.90;;;;;;5099704;28;20186;-45
2023/11/05 03:39:25;;;;;;;1.53;1.43;;;8.30;99.90;;;;;;5100138;28;20178;-42
2023/11/05 03:41:51;;;;;;;2.20;1.00;;;8.40;99.90;;;;;;5092075;27;20254;-44
2023/11/05 03:44:18;;;;;;;1.80;1.23;;;8.40;99.90;;;;;;5098420;28;20596;-43
2023/11/05 03:46:45;;;;;;;1.67;1.27;;;8.40;99.90;;;;;;5104148;27;20181;-46
2023/11/05 03:49:14;;;;;;;1.47;1.30;;;8.40;99.90;;;;;;5066354;27;20224;-45
2023/11/05 03:51:41;;;;;;;2.70;0.97;;;8.40;99.90;;;;;;5104710;28;20213;-45
2023/11/05 03:54:07;;;;;;;1.30;1.20;;;8.40;99.90;;;;;;5106106;27;20687;-42
2023/11/05 03:56:34;;;;;;;1.10;1.10;;;8.40;99.90;;;;;;5090407;28;21630;-43
2023/11/05 03:59:01;;;;;;;3.43;1.20;;;8.40;99.90;;;;;;5110642;27;20214;-42
2023/11/05 04:01:28;;;;;;;1.20;1.10;;;8.50;99.90;;;;;;5098906;28;20194;-46
2023/11/05 04:03:55;;;;;;;2.13;1.20;;;8.50;99.90;;;;;;5073566;27;20201;-46
2023/11/05 04:06:23;;;;;;;1.70;1.20;;;8.50;99.90;;;;;;5100387;27;20205;-45
2023/11/05 04:08:50;;;;;;;1.73;1.00;;;8.50;99.90;;;;;;5104771;28;20254;-45
2023/11/05 04:11:16;;;;;;;1.57;1.23;;;8.50;99.90;;;;;;5102135;28;20282;-43
2023/11/05 04:13:45;;;;;;;1.87;1.30;;;8.50;99.90;;;;;;5094815;28;20201;-47
2023/11/05 04:16:11;;;;;;;1.10;0.90;;;8.50;99.90;;;;;;5101528;28;20247;-42
2023/11/05 04:18:38;;;;;;;1.53;1.10;;;8.50;99.90;;;;;;5098738;28;20190;-48
2023/11/05 04:21:06;;;;;;;0.90;0.80;;;8.50;99.90;;;;;;5067432;27;20246;-44
2023/11/05 04:23:34;;;;;;;1.33;1.23;;;8.50;99.90;;;;;;5102284;28;20975;-49
2023/11/05 04:26:01;;;;;;;1.33;1.00;;;8.50;99.90;;;;;;5104721;28;20251;-43
2023/11/05 04:28:28;;;;;;;4.40;1.17;;;8.50;99.90;;;;;;5089987;28;20196;-45
2023/11/05 04:30:55;;;;;;;2.43;1.30;;;8.50;99.90;;;;;;5104502;28;20193;-46
2023/11/05 04:33:21;;;;;;;1.77;1.20;;;8.50;99.90;;;;;;5089806;28;20209;-45
2023/11/05 04:35:48;;;;;;;3.33;1.00;;;8.50;99.90;;;;;;5073119;28;20237;-43
2023/11/05 04:38:15;;;;;;;2.10;1.07;;;8.50;99.90;;;;;;5100468;28;20205;-42
2023/11/05 04:40:44;;;;;;;1.50;1.27;;;8.50;99.90;;;;;;5102603;28;20254;-44
2023/11/05 04:43:10;;;;;;;1.70;1.27;;;8.50;99.90;;;;;;5086826;28;20212;-43
2023/11/05 04:45:37;;;;;;;0.80;0.80;;;8.50;99.90;;;;;;5102759;28;20201;-44
2023/11/05 04:48:04;;;;;;;2.30;0.93;;;8.60;99.90;;;;;;5103375;28;20189;-47
2023/11/05 04:50:31;;;;;;;2.03;1.10;;;8.60;99.90;;;;;;5067386;27;20209;-45
2023/11/05 04:52:58;;;;;;;3.60;1.23;;;8.60;99.90;;;;;;5104209;27;20333;-44
2023/11/05 04:55:25;;;;;;;0.90;0.77;;;8.60;99.90;;;;;;5100626;28;20212;-48
2023/11/05 04:57:54;;;;;;;1.30;1.20;;;8.60;99.90;;;;;;5103520;28;20202;-47
2023/11/05 05:00:21;;;;;;;1.30;1.10;;;8.50;99.90;;;;;;5082042;27;20229;-44
2023/11/05 05:02:47;;;;;;;1.37;1.00;;;8.60;99.90;;;;;;5102372;27;20712;-49
2023/11/05 05:05:14;;;;;;;1.83;1.07;;;8.60;99.90;;;;;;5078043;27;20209;-42
2023/11/05 05:07:42;;;;;;;1.20;1.10;;;8.60;99.90;;;;;;5105700;27;20205;-47
2023/11/05 05:10:09;;;;;;;0.90;0.83;;;8.60;99.90;;;;;;5103391;27;20238;-44
2023/11/05 05:12:37;;;;;;;1.37;0.80;;;8.60;99.90;;;;;;5104027;27;20346;-45
2023/11/05 05:15:06;;;;;;;2.33;0.83;;;8.60;99.90;;;;;;5093277;28;20648;-44
2023/11/05 05:17:33;;;;;;;1.10;0.90;;;8.60;99.90;;;;;;5095238;28;20205;-44
2023/11/05 05:20:00;;;;;;;2.80;0.90;;;8.60;99.90;;;;;;5101931;28;20193;-44
2023/11/05 05:22:27;;;;;;;1.33;1.10;;;8.60;99.90;;;;;;5068230;28;20197;-48
2023/11/05 05:24:54;;;;;;;1.80;1.10;;;8.60;99.90;;;;;;5103559;28;20628;-46
2023/11/05 05:27:20;;;;;;;1.37;1.27;;;8.60;99.90;;;;;;5100055;28;20185;-45
2023/11/05 05:29:47;;;;;;;2.03;1.23;;;8.60;99.90;;;;;;5103636;28;20663;-44
2023/11/05 05:32:15;;;;;;;1.30;1.20;;;8.60;99.90;;;;;;5090475;28;20210;-42
2023/11/05 05:34:42;;;;;;;1.23;1.00;;;8.60;99.90;;;;;;5102680;27;20217;-43
2023/11/05 05:37:09;;;;;;;1.17;0.90;;;8.70;99.90;;;;;;5069128;28;20275;-43
2023/11/05 05:39:36;;;;;;;1.60;0.90;;;8.60;99.90;;;;;;5101413;28;20193;-44
2023/11/05 05:42:03;;;;;;;2.60;1.03;;;8.60;99.90;;;;;;5101496;28;20208;-42
2023/11/05 05:44:31;;;;;;;3.50;1.30;;;8.60;99.90;;;;;;5097606;28;20207;-49
2023/11/05 05:46:58;;;;;;;1.73;1.10;;;8.70;99.90;;;;;;5093910;28;20659;-48
2023/11/05 05:49:26;;;;;;;1.40;1.27;;;8.70;99.90;;;;;;5097109;28;20246;-44
2023/11/05 05:51:53;;;;;;;1.73;1.10;;;8.70;99.90;;;;;;5100280;28;20237;-48
2023/11/05 05:54:21;;;;;;;1.97;1.00;;;8.70;99.90;;;;;;5067680;28;20236;-44
2023/11/05 05:56:48;;;;;;;1.53;1.27;;;8.60;99.90;;;;;;5102524;28;20194;-45
2023/11/05 05:59:15;;;;;;;0.90;0.90;;;8.60;99.90;;;;;;5100117;28;20201;-41
2023/11/05 06:01:41;;;;;;;4.70;1.10;;;8.70;99.90;;;;;;5091585;28;20562;-49
2023/11/05 06:04:09;;;;;;;1.87;1.10;;;8.60;99.90;;;;;;5101514;28;20293;-43
2023/11/05 06:06:37;;;;;;;1.90;1.23;;;8.70;99.90;;;;;;5100571;28;20915;-46
2023/11/05 06:09:06;;;;;;;0.80;0.80;;;8.60;99.90;;;;;;5070544;28;20294;-46
2023/11/05 06:11:32;;;;;;;1.63;0.83;;;8.70;99.90;;;;;;5100690;28;20315;-45
2023/11/05 06:13:59;;;;;;;1.87;0.97;;;8.60;99.90;;;;;;5102106;27;20194;-43
2023/11/05 06:16:26;;;;;;;1.87;1.00;;;8.60;99.90;;;;;;5087435;28;20210;-44
2023/11/05 06:18:53;;;;;;;3.57;1.03;;;8.70;99.90;;;;;;5112094;27;20205;-44
2023/11/05 06:21:20;;;;;;;1.63;1.10;;;8.70;99.90;;;;;;5095502;28;20205;-48
2023/11/05 06:23:48;;;;;;;1.43;1.00;;;8.70;99.90;;;;;;5102598;28;21053;-48
2023/11/05 06:26:15;;;;;;;2.77;1.13;;;8.70;99.90;;;;;;5046625;27;20258;-47
2023/11/05 06:28:42;;;;;;;3.33;1.00;;;8.70;99.90;;;;;;5104198;28;20619;-46
2023/11/05 06:31:09;;;;;;;2.13;1.10;;;8.70;99.90;;;;;;5092219;28;20312;-48
2023/11/05 06:33:35;;;;;;;2.03;0.87;;;8.70;99.90;;;;;;5086416;28;20273;-45
2023/11/05 06:36:03;;;;;;;3.33;1.00;;;8.70;99.90;;;;;;5102057;27;20296;-45
2023/11/05 06:38:30;;;;;;;1.50;0.97;;;8.70;99.90;;;;;;5099585;28;20203;-45
2023/11/05 06:40:58;;;;;;;2.07;1.10;;;8.70;99.90;;;;;;5067698;28;20254;-49
2023/11/05 06:43:25;;;;;;;1.10;1.00;;;8.70;99.90;;;;;;5096852;28;20269;-46
2023/11/05 06:45:53;;;;;;;1.37;1.00;;;8.70;99.90;;;;;;5098201;28;20224;-45
2023/11/05 06:48:20;;;;;;;0.73;0.73;;;8.70;99.90;;;;;;5071423;28;21467;-45
2023/11/05 06:50:47;;;;;;;2.13;1.20;;;8.70;99.90;;;;;;5097589;28;20190;-51
2023/11/05 06:53:13;;;;;;;4.37;1.00;;;8.70;99.90;;;;;;5091681;28;20580;-42
2023/11/05 06:55:40;;;;;;;2.47;1.37;;;8.70;99.90;;;;;;5075692;28;20221;-47
2023/11/05 06:58:09;;;;;;;2.97;1.20;;;8.80;99.90;;;;;;5089806;28;20625;-48
2023/11/05 07:00:35;;;;;;;2.17;1.03;;;8.80;99.90;;;;;;5101838;28;20270;-42
2023/11/05 07:03:03;;;;;;;2.07;1.07;;;8.80;99.90;;;;;;5089822;28;20675;-46
2023/11/05 07:05:29;;;;;;;1.10;0.90;;;8.80;99.90;;;;;;5085573;28;20219;-42
2023/11/05 07:07:56;;;;;;;1.60;0.80;;;8.80;99.90;;;;;;5097757;28;21640;-48
2023/11/05 07:10:24;;;;;;;2.37;1.43;;;8.80;99.90;;;;;;5102620;28;20252;-45
2023/11/05 07:12:51;;;;;;;2.20;0.87;;;8.80;99.90;;;;;;5069080;28;20287;-45
2023/11/05 07:15:19;;;;;;;2.77;0.93;;;8.80;99.90;;;;;;5099933;28;20890;-42
2023/11/05 07:17:46;;;;;;;2.03;1.60;;;8.80;99.90;;;;;;5095369;28;20254;-42
2023/11/05 07:20:13;;;;;;;2.23;1.30;;;8.80;99.90;;;;;;5085829;27;20653;-50
2023/11/05 07:22:40;;;;;;;2.00;1.00;;;8.90;99.90;;;;;;5103778;27;20214;-44
2023/11/05 07:25:08;;;;;;;1.77;0.90;;;8.90;99.90;;;;;;5090947;28;20229;-49
2023/11/05 07:27:35;;;;;;;2.60;1.00;;;8.90;99.90;;;;;;5072619;27;20205;-45
2023/11/05 07:30:03;;;;;;;1.33;1.10;;;8.90;99.90;;;;;;5107168;27;20250;-48
2023/11/05 07:32:32;;;;;;;4.83;1.43;;;8.90;99.90;;;;;;5105289;27;20209;-42
2023/11/05 07:34:59;;;;;;;4.20;1.07;;;9.00;99.90;;;;;;5091422;28;20278;-47
2023/11/05 07:37:27;;;;;;;1.33;1.00;;;9.00;99.90;;;;;;5105449;27;20254;-46
2023/11/05 07:39:54;;;;;;;2.07;1.13;;;9.00;99.90;;;;;;5096270;28;20284;-47
2023/11/05 07:42:21;;;;;;;2.87;1.70;;;9.10;99.90;;;;;;5066937;27;20276;-44
2023/11/05 07:44:48;;;;;;;4.80;1.20;;;9.10;99.90;;;;;;5103821;28;20232;-45
2023/11/05 07:47:16;;;;;;;1.13;0.90;;;9.10;99.90;;;;;;5097851;28;20200;-44
2023/11/05 07:49:44;;;;;;;0.83;0.80;;;9.10;99.90;;;;;;5096668;28;20247;-44
2023/11/05 07:52:11;;;;;;;3.53;1.20;;;9.20;99.90;;;;;;5085861;28;20245;-45
2023/11/05 07:54:37;;;;;;;4.27;0.90;;;9.20;99.90;;;;;;5095266;28;20218;-45
2023/11/05 07:57:05;;;;;;;3.97;1.30;;;9.20;99.90;;;;;;5086527;28;20565;-47
2023/11/05 07:59:32;;;;;;;5.73;1.13;;;9.20;99.90;;;;;;5091615;27;20196;-46
2023/11/05 08:01:59;;;;;;;6.00;1.60;;;9.20;99.90;;;;;;5099214;28;20741;-45
2023/11/05 08:04:27;;;;;;;4.67;1.03;;;9.20;99.90;;;;;;5093514;28;20268;-50
2023/11/05 08:06:55;;;;;;;6.43;1.27;;;9.30;99.90;;;;;;5102930;28;20185;-45
2023/11/05 08:09:23;;;;;;;5.20;1.13;;;9.30;99.90;;;;;;5085548;27;20213;-49
2023/11/05 08:11:53;;;;;;;5.33;1.30;;;9.30;99.90;;;;;;5093042;27;20834;-50
2023/11/05 08:14:19;;;;;;;3.07;1.50;;;9.30;99.90;;;;;;5067569;27;20228;-49
2023/11/05 08:16:46;;;;;;;1.83;1.00;;;9.40;99.90;;;;;;5101791;28;20723;-45
2023/11/05 08:19:13;;;;;;;2.47;1.40;;;9.40;99.90;;;;;;5097794;27;20226;-49
2023/11/05 08:21:40;;;;;;;2.27;1.17;;;9.50;99.90;;;;;;5095693;28;20606;-49
2023/11/05 08:24:08;;;;;;;2.70;1.47;;;9.50;99.90;;;;;;5088172;27;20229;-48
2023/11/05 08:26:35;;;;;;;5.43;1.07;;;9.60;99.90;;;;;;5100167;27;20201;-48
2023/11/05 08:29:02;;;;;;;7.43;1.40;;;9.60;99.90;;;;;;5074082;27;20282;-47
2023/11/05 08:31:29;;;;;;;2.97;1.37;;;9.60;99.90;;;;;;5104297;27;20249;-46
2023/11/05 08:33:56;;;;;;;2.17;1.10;;;9.70;99.90;;;;;;5100711;27;20205;-48
2023/11/05 08:36:23;;;;;;;2.07;1.10;;;9.80;99.90;;;;;;5086036;28;20278;-48
2023/11/05 08:38:51;;;;;;;2.90;1.07;;;9.80;99.90;;;;;;5088467;28;20266;-46
2023/11/05 08:41:19;;;;;;;4.57;1.20;;;9.80;99.90;;;;;;5088006;27;20197;-46
2023/11/05 08:43:46;;;;;;;4.17;1.20;;;9.90;99.90;;;;;;5066774;28;20213;-47
2023/11/05 08:46:13;;;;;;;2.60;1.13;;;9.90;99.90;;;;;;5100154;28;20203;-47
2023/11/05 08:48:40;;;;;;;3.30;0.90;;;9.90;99.90;;;;;;5098856;28;20273;-46
2023/11/05 08:51:07;;;;;;;0.97;0.87;;;9.80;99.90;;;;;;5101257;28;20221;-45
2023/11/05 08:53:34;;;;;;;4.93;1.47;;;9.90;99.90;;;;;;5089483;28;20266;-46
2023/11/05 08:56:01;;;;;;;2.17;1.03;;;9.90;99.90;;;;;;5099306;28;20266;-45
2023/11/05 08:58:29;;;;;;;1.37;1.10;;;9.80;99.90;;;;;;5054778;27;20206;-46
2023/11/05 09:00:56;;;;;;;0.83;0.83;;;9.80;99.90;;;;;;5099678;28;20703;-45
2023/11/05 09:03:24;;;;;;;3.57;1.20;;;9.90;99.90;;;;;;5099697;28;20185;-48
2023/11/05 09:05:51;;;;;;;2.03;1.13;;;9.90;99.90;;;;;;5103393;28;20734;-47
2023/11/05 09:08:18;;;;;;;3.83;1.10;;;9.90;99.90;;;;;;5096988;27;20247;-46
2023/11/05 09:10:45;;;;;;;2.77;1.27;;;10.00;99.90;;;;;;5099334;28;20192;-45
2023/11/05 09:13:12;;;;;;;3.13;1.23;;;10.00;99.90;;;;;;5087822;27;20233;-46
2023/11/05 09:15:40;;;;;;;1.13;1.03;;;10.00;99.90;;;;;;5062827;28;20262;-46
2023/11/05 09:18:07;;;;;;;3.83;1.20;;;10.10;99.90;;;;;;5103048;27;20545;-46
2023/11/05 09:20:34;;;;;;;2.87;1.50;;;10.20;99.90;;;;;;5099993;28;20220;-46
2023/11/05 09:23:01;;;;;;;4.40;1.10;;;10.20;99.90;;;;;;5103653;28;20235;-48
2023/11/05 09:25:28;;;;;;;1.87;1.07;;;10.20;99.90;;;;;;5089757;28;20300;-48
2023/11/05 09:27:56;;;;;;;2.00;1.20;;;10.30;99.90;;;;;;5094209;28;20673;-48
2023/11/05 09:30:22;;;;;;;3.10;1.47;;;10.30;99.90;;;;;;5059508;28;20207;-48
2023/11/05 09:32:51;;;;;;;1.90;1.40;;;10.30;99.90;;;;;;5102102;28;20294;-46
2023/11/05 09:35:18;;;;;;;3.67;1.40;;;10.30;99.90;;;;;;5097797;28;20217;-48
2023/11/05 09:37:46;;;;;;;1.00;0.90;;;10.30;99.90;;;;;;5096563;28;20182;-47
2023/11/05 09:40:14;;;;;;;1.60;1.17;;;10.40;99.90;;;;;;5088160;28;20615;-47
2023/11/05 09:42:45;;;;;;;3.73;1.10;;;10.40;99.90;;;;;;5092276;28;20201;-49
2023/11/05 09:45:13;;;;;;;1.90;1.10;;;10.40;99.90;;;;;;5085112;27;20232;-48
2023/11/05 09:47:42;;;;;;;4.57;1.20;;;10.50;99.90;;;;;;5076580;28;20348;-47
2023/11/05 09:50:12;;;;;;;2.60;1.20;;;10.40;99.90;;;;;;5099304;28;20190;-48
2023/11/05 09:52:41;;;;;;;3.27;1.00;;;10.50;99.90;;;;;;5096795;28;20189;-47
2023/11/05 09:55:09;;;;;;;1.80;0.93;;;10.50;99.90;;;;;;5089856;27;20235;-45
2023/11/05 09:57:36;;;;;;;1.87;0.90;;;10.50;99.90;;;;;;5097736;28;20189;-45
2023/11/05 10:00:04;;;;;;;2.03;1.23;;;10.50;99.90;;;;;;5085396;28;20225;-44
2023/11/05 10:02:52;;;;;;;2.77;0.90;;;10.50;99.90;;;;;;5071547;28;20197;-46
2023/11/05 10:05:20;;;;;;;2.60;1.10;;;10.50;99.90;;;;;;5097575;28;20229;-46
2023/11/05 10:07:48;;;;;;;3.37;1.20;;;10.50;99.90;;;;;;5100589;28;20196;-45
2023/11/05 10:10:15;;;;;;;3.03;1.30;;;10.50;99.90;;;;;;5087787;28;20612;-45
2023/11/05 10:12:43;;;;;;;2.43;1.03;;;10.50;99.90;;;;;;5099729;28;20181;-45
2023/11/05 10:15:11;;;;;;;1.30;1.00;;;10.50;99.90;;;;;;5084538;28;20236;-47
2023/11/05 10:17:38;;;;;;;3.17;1.17;;;10.60;99.90;;;;;;5066947;28;20912;-48
2023/11/05 10:20:07;;;;;;;2.27;1.10;;;10.60;99.90;;;;;;5098803;28;20553;-48
2023/11/05 10:22:37;;;;;;;1.33;0.90;;;10.60;99.90;;;;;;5098328;28;20262;-47
2023/11/05 10:25:06;;;;;;;1.30;0.97;;;10.60;99.90;;;;;;5101339;27;20292;-45
2023/11/05 10:27:35;;;;;;;1.53;1.00;;;10.70;99.90;;;;;;5084996;28;20193;-48
2023/11/05 10:30:04;;;;;;;1.27;0.80;;;10.70;99.90;;;;;;5092964;28;20198;-48
2023/11/05 10:32:32;;;;;;;1.43;0.97;;;10.70;99.90;;;;;;5057586;28;21708;-47
2023/11/05 10:35:01;;;;;;;0.90;0.77;;;10.80;99.90;;;;;;5102897;28;20691;-46
2023/11/05 10:37:28;;;;;;;1.53;0.90;;;10.80;99.90;;;;;;5093756;28;20280;-52
2023/11/05 10:39:57;;;;;;;2.03;0.80;;;10.90;99.90;;;;;;5098224;28;20676;-50
2023/11/05 10:42:26;;;;;;;2.90;1.10;;;11.00;99.90;;;;;;5086104;28;20624;-46
2023/11/05 10:44:54;;;;;;;1.67;1.03;;;11.10;99.90;;;;;;5091088;28;20217;-45
2023/11/05 10:47:22;;;;;;;0.80;0.80;;;11.10;99.90;;;;;;5068106;28;20736;-48
2023/11/05 10:49:57;;;;;;;1.70;0.73;;;11.20;99.90;;;;;;5096772;28;20205;-50
2023/11/05 10:52:24;;;;;;;2.33;1.13;;;11.20;99.90;;;;;;5096462;28;20205;-47
2023/11/05 10:55:05;;;;;;;2.57;1.20;;;11.20;99.90;;;;;;5100217;28;20227;-50
2023/11/05 10:57:43;;;;;;;2.00;1.00;;;11.20;99.90;;;;;;5088328;28;20251;-47
2023/11/05 11:00:45;;;;;;;1.97;1.10;;;11.20;99.90;;;;;;5096300;28;20223;-45
2023/11/05 11:03:13;;;;;;;2.73;1.43;;;11.20;99.90;;;;;;5078064;28;20221;-50
2023/11/05 11:06:00;;;;;;;1.70;1.10;;;11.20;99.90;;;;;;5081316;28;20212;-45
2023/11/05 11:08:29;;;;;;;1.37;1.17;;;11.10;99.90;;;;;;5095585;28;20209;-48
2023/11/05 11:11:18;;;;;;;1.30;1.20;;;11.10;99.90;;;;;;5097030;28;20192;-47
2023/11/05 11:13:56;;;;;;;2.67;1.27;;;11.10;99.90;;;;;;5097756;28;20241;-46
2023/11/05 11:16:25;;;;;;;1.80;1.30;;;11.10;99.90;;;;;;5089583;28;20197;-47
2023/11/05 11:18:54;;;;;;;1.63;1.30;;;11.10;99.90;;;;;;5087944;28;20204;-47
2023/11/05 11:21:21;;;;;;;1.83;1.30;;;11.20;99.90;;;;;;5067178;28;20571;-47
2023/11/05 11:23:50;;;;;;;1.30;1.13;;;11.20;99.90;;;;;;5100818;28;20200;-47
2023/11/05 11:26:26;;;;;;;1.30;1.20;;;11.30;99.90;;;;;;5093680;28;20224;-45
2023/11/05 11:29:02;;;;;;;3.07;1.00;;;11.30;99.90;;;;;;5095903;28;20246;-45
2023/11/05 11:31:29;;;;;;;1.00;1.00;;;11.20;99.90;;;;;;5083175;28;20891;-45
2023/11/05 11:33:55;;;;;;;1.10;1.00;;;11.20;99.90;;;;;;5082695;28;20205;-47
2023/11/05 11:36:23;;;;;;;0.93;0.83;;;11.10;99.90;;;;;;5065163;28;20284;-46
2023/11/05 11:38:50;;;;;;;0.70;0.70;;;11.10;99.90;;;;;;5097018;28;20222;-45
2023/11/05 11:41:17;;;;;;;2.03;0.80;;;11.10;99.90;;;;;;5092495;28;20201;-49
2023/11/05 11:43:46;;;;;;;1.30;0.80;;;11.00;99.90;;;;;;5089379;28;20212;-47
2023/11/05 11:46:13;;;;;;;0.90;0.90;;;11.00;99.90;;;;;;5095049;28;20251;-50
2023/11/05 11:48:39;;;;;;;1.33;1.17;;;11.00;99.90;;;;;;5090898;28;20198;-46
2023/11/05 11:51:07;;;;;;;3.10;1.20;;;11.00;99.90;;;;;;5063770;28;20205;-46
2023/11/05 11:53:37;;;;;;;0.90;0.90;;;11.00;99.90;;;;;;5096280;28;20547;-46
2023/11/05 11:56:05;;;;;;;1.27;1.13;;;11.00;99.90;;;;;;5101197;28;20213;-47
2023/11/05 11:58:37;;;;;;;1.60;1.50;;;11.00;99.90;;;;;;5085034;28;20189;-47
2023/11/05 12:01:10;;;;;;;1.80;1.30;;;11.00;99.90;;;;;;5103355;28;20193;-47
2023/11/05 12:03:37;;;;;;;1.53;1.43;;;11.00;99.90;;;;;;5093947;27;20213;-48
2023/11/05 12:06:05;;;;;;;1.60;1.50;;;11.10;99.90;;;;;;5098871;27;20224;-48
2023/11/05 12:08:36;;;;;;;1.93;1.73;;;11.20;99.90;;;;;;5078129;27;20202;-46
2023/11/05 12:11:06;;;;;;;3.00;1.70;;;11.30;99.90;;;;;;5099874;28;20243;-48
2023/11/05 12:13:33;;;;;;;1.73;1.50;;;11.30;99.90;;;;;;5090383;28;20229;-51
2023/11/05 12:16:01;;;;;;;2.80;1.53;;;11.30;99.90;;;;;;5104614;27;20278;-49
2023/11/05 12:18:29;;;;;;;1.60;1.50;;;11.30;99.90;;;;;;5098484;27;20242;-47
2023/11/05 12:20:56;;;;;;;2.27;1.63;;;11.30;99.90;;;;;;5083886;28;20673;-49
2023/11/05 12:23:23;;;;;;;2.77;1.70;;;11.20;99.90;;;;;;5073087;27;20208;-48
2023/11/05 12:25:57;;;;;;;1.80;1.50;;;11.20;99.90;;;;;;5101957;28;20216;-47
2023/11/05 12:28:23;;;;;;;2.30;1.87;;;11.30;99.90;;;;;;5101291;27;20280;-48
2023/11/05 12:30:50;;;;;;;1.80;1.70;;;11.30;99.90;;;;;;5098033;27;20193;-45
2023/11/05 12:33:17;;;;;;;2.77;1.70;;;11.30;99.90;;;;;;5100156;27;20579;-48
2023/11/05 12:35:46;;;;;;;3.17;2.10;;;11.40;99.90;;;;;;5087039;28;20282;-48
2023/11/05 12:38:13;;;;;;;3.00;1.93;;;11.40;99.90;;;;;;5065104;28;20680;-48
2023/11/05 12:40:39;;;;;;;2.50;1.70;;;11.40;99.90;;;;;;5101454;28;20270;-45
2023/11/05 12:43:06;;;;;;;2.77;1.80;;;11.40;99.90;;;;;;5103227;27;20667;-47
2023/11/05 12:45:33;;;;;;;4.97;1.90;;;11.50;99.90;;;;;;5091447;28;20216;-45
2023/11/05 12:48:00;;;;;;;1.90;1.80;;;11.50;99.90;;;;;;5105671;27;20251;-45
2023/11/05 12:50:27;;;;;;;3.60;2.10;;;11.40;99.90;;;;;;5092121;27;20197;-48
2023/11/05 12:52:55;;;;;;;2.10;2.00;;;11.40;99.90;;;;;;5073484;28;20210;-49
2023/11/05 12:55:22;;;;;;;2.93;1.83;;;11.50;99.90;;;;;;5084556;28;20217;-48